createdAt,value
2017-01-08T00:00:54.168Z,94.03
2017-01-08T00:01:54.124Z,94.13
2017-01-08T00:02:54.080Z,93.99
2017-01-08T00:03:54.035Z,94.41
2017-01-08T00:04:53.992Z,94.51
2017-01-08T00:05:53.946Z,94.41
2017-01-08T00:06:53.903Z,94.6
2017-01-08T00:07:53.859Z,94.88
2017-01-08T00:08:53.816Z,94.88
2017-01-08T00:09:53.770Z,94.69
2017-01-08T00:10:53.727Z,94.79
2017-01-08T00:11:53.682Z,94.41
2017-01-08T00:12:53.637Z,94.79
2017-01-08T00:13:53.592Z,94.69
2017-01-08T00:14:53.549Z,95.36
2017-01-08T00:15:53.506Z,95.36
2017-01-08T00:16:53.459Z,94.69
2017-01-08T00:17:53.417Z,95.36
2017-01-08T00:18:53.371Z,94.6
2017-01-08T00:19:53.327Z,95.21
2017-01-08T00:20:53.282Z,95.59
2017-01-08T00:21:53.239Z,95.4
2017-01-08T00:22:53.194Z,95.4
2017-01-08T00:23:53.151Z,95.5
2017-01-08T00:24:53.106Z,95.21
2017-01-08T00:25:53.068Z,95.21
2017-01-08T00:26:53.017Z,94.65
2017-01-08T00:27:52.973Z,95.4
2017-01-08T00:28:52.929Z,94.65
2017-01-08T00:29:52.883Z,94.84
2017-01-08T00:30:52.841Z,94.74
2017-01-08T00:31:52.798Z,95.4
2017-01-08T00:32:52.752Z,95.5
2017-01-08T00:33:52.708Z,95.21
2017-01-08T00:34:52.663Z,95.4
2017-01-08T00:35:52.621Z,94.36
2017-01-08T00:36:52.577Z,94.46
2017-01-08T00:37:52.532Z,95.21
2017-01-08T00:38:52.488Z,95.21
2017-01-08T00:39:52.445Z,95.03
2017-01-08T00:40:52.400Z,95.03
2017-01-08T00:41:52.353Z,95.4
2017-01-08T00:42:52.312Z,95.4
2017-01-08T00:43:52.267Z,95.21
2017-01-08T00:44:52.224Z,95.12
2017-01-08T00:45:52.178Z,95.4
2017-01-08T00:46:52.134Z,95.21
2017-01-08T00:47:52.095Z,95.21
2017-01-08T00:48:52.047Z,95.12
2017-01-08T00:49:52.003Z,95.12
2017-01-08T00:50:51.960Z,94.84
2017-01-08T00:51:51.913Z,95.31
2017-01-08T00:52:51.868Z,94.93
2017-01-08T00:53:51.825Z,95.68
2017-01-08T00:54:51.781Z,95.59
2017-01-08T00:55:51.738Z,95.68
2017-01-08T00:56:51.692Z,95.68
2017-01-08T00:57:51.648Z,95.31
2017-01-08T00:58:51.607Z,95.87
2017-01-08T00:59:51.561Z,95.78
2017-01-08T01:00:51.515Z,95.87
2017-01-08T01:01:51.472Z,96.15
2017-01-08T01:02:51.429Z,96.06
2017-01-08T01:03:51.386Z,96.15
2017-01-08T01:04:51.340Z,95.97
2017-01-08T01:05:51.298Z,96.06
2017-01-08T01:06:51.254Z,95.97
2017-01-08T01:07:51.207Z,95.97
2017-01-08T01:08:51.164Z,96.06
2017-01-08T01:09:51.120Z,96.06
2017-01-08T01:10:51.076Z,95.68
2017-01-08T01:11:51.032Z,95.87
2017-01-08T01:12:50.988Z,95.78
2017-01-08T01:13:50.945Z,95.78
2017-01-08T01:14:50.901Z,95.97
2017-01-08T01:15:50.855Z,95.68
2017-01-08T01:16:50.812Z,96.06
2017-01-08T01:17:50.768Z,96.15
2017-01-08T01:18:50.723Z,96.34
2017-01-08T01:19:50.681Z,96.06
2017-01-08T01:20:50.638Z,96.06
2017-01-08T01:21:50.593Z,96.15
2017-01-08T01:22:50.548Z,96.34
2017-01-08T01:23:50.505Z,96.25
2017-01-08T01:24:50.459Z,96.06
2017-01-08T01:25:50.414Z,96.06
2017-01-08T01:26:50.373Z,96.06
2017-01-08T01:27:50.329Z,96.63
2017-01-08T01:28:50.284Z,96.25
2017-01-08T01:29:50.240Z,96.25
2017-01-08T01:30:50.197Z,96.34
2017-01-08T01:31:50.152Z,96.53
2017-01-08T01:32:50.109Z,96.81
2017-01-08T01:33:50.067Z,96.44
2017-01-08T01:34:50.021Z,96.44
2017-01-08T01:35:49.978Z,96.53
2017-01-08T01:36:49.931Z,96.53
2017-01-08T01:37:49.888Z,96.44
2017-01-08T01:38:49.845Z,96.53
2017-01-08T01:39:49.804Z,96.34
2017-01-08T01:40:49.757Z,97.1
2017-01-08T01:41:49.712Z,97.38
2017-01-08T01:42:49.669Z,97.19
2017-01-08T01:43:49.625Z,97
2017-01-08T01:44:49.583Z,97
2017-01-08T01:45:49.538Z,97
2017-01-08T01:46:49.494Z,96.72
2017-01-08T01:47:49.451Z,96.81
2017-01-08T01:48:49.406Z,97
2017-01-08T01:49:49.362Z,97.19
2017-01-08T01:50:49.318Z,97.19
2017-01-08T01:51:49.275Z,97.29
2017-01-08T01:52:49.230Z,97.19
2017-01-08T01:53:49.186Z,97.1
2017-01-08T01:54:49.145Z,97.29
2017-01-08T01:55:49.100Z,97.29
2017-01-08T01:56:49.055Z,97.95
2017-01-08T01:57:49.011Z,97.76
2017-01-08T01:58:48.968Z,97.57
2017-01-08T01:59:48.925Z,97.85
2017-01-08T02:00:48.880Z,97.76
2017-01-08T02:01:48.837Z,97.57
2017-01-08T02:02:48.793Z,97.76
2017-01-08T02:03:48.748Z,97.76
2017-01-08T02:04:48.705Z,97.57
2017-01-08T02:05:48.661Z,97.57
2017-01-08T02:06:48.617Z,97.85
2017-01-08T02:07:48.574Z,97.29
2017-01-08T02:08:48.532Z,98.14
2017-01-08T02:09:48.485Z,97.95
2017-01-08T02:10:48.441Z,97.85
2017-01-08T02:11:48.398Z,98.04
2017-01-08T02:12:48.354Z,97.95
2017-01-08T02:13:48.311Z,97.67
2017-01-08T02:14:48.268Z,97.67
2017-01-08T02:15:48.222Z,97.76
2017-01-08T02:16:48.179Z,97.85
2017-01-08T02:17:48.136Z,97.67
2017-01-08T02:18:48.093Z,97.76
2017-01-08T02:19:48.049Z,97.76
2017-01-08T02:20:48.006Z,97.67
2017-01-08T02:21:47.961Z,97.95
2017-01-08T02:22:47.918Z,98.33
2017-01-08T02:23:47.873Z,98.33
2017-01-08T02:24:47.828Z,98.23
2017-01-08T02:25:47.785Z,98.14
2017-01-08T02:26:47.741Z,97.67
2017-01-08T02:27:47.697Z,97.76
2017-01-08T02:28:47.654Z,97.95
2017-01-08T02:29:47.611Z,97.85
2017-01-08T02:30:47.567Z,97.67
2017-01-08T02:31:47.522Z,97.67
2017-01-08T02:32:47.477Z,98.23
2017-01-08T02:33:47.435Z,98.33
2017-01-08T02:34:47.393Z,98.23
2017-01-08T02:35:47.348Z,98.33
2017-01-08T02:36:47.304Z,98.04
2017-01-08T02:37:47.259Z,97.95
2017-01-08T02:38:47.215Z,98.14
2017-01-08T02:39:47.172Z,98.19
2017-01-08T02:40:47.128Z,98.14
2017-01-08T02:41:47.085Z,98.14
2017-01-08T02:42:47.038Z,98
2017-01-08T02:43:46.995Z,97.85
2017-01-08T02:44:46.951Z,98.04
2017-01-08T02:45:46.907Z,98.04
2017-01-08T02:46:46.862Z,97.95
2017-01-08T02:47:46.821Z,98.14
2017-01-08T02:48:46.775Z,97.95
2017-01-08T02:49:46.730Z,98.14
2017-01-08T02:50:46.687Z,97.95
2017-01-08T02:51:46.644Z,97.76
2017-01-08T02:52:46.600Z,98.1
2017-01-08T02:53:46.555Z,98.23
2017-01-08T02:54:46.512Z,98.14
2017-01-08T02:55:46.468Z,98.04
2017-01-08T02:56:46.424Z,98.23
2017-01-08T02:57:46.380Z,98.19
2017-01-08T02:58:46.336Z,97.95
2017-01-08T02:59:46.293Z,98.42
2017-01-08T03:00:46.252Z,98.19
2017-01-08T03:01:46.205Z,98.19
2017-01-08T03:02:46.161Z,98.57
2017-01-08T03:03:46.116Z,98.52
2017-01-08T03:04:46.072Z,98.47
2017-01-08T03:05:46.029Z,98.47
2017-01-08T03:06:46.030Z,98.14
2017-01-08T03:07:45.942Z,98.1
2017-01-08T03:08:45.897Z,97.72
2017-01-08T03:09:45.853Z,97.95
2017-01-08T03:10:45.809Z,98.14
2017-01-08T03:11:45.764Z,98
2017-01-08T03:12:45.718Z,98.23
2017-01-08T03:13:45.679Z,98
2017-01-08T03:14:45.631Z,98.1
2017-01-08T03:15:45.587Z,98.57
2017-01-08T03:16:45.543Z,98.14
2017-01-08T03:17:45.500Z,98.33
2017-01-08T03:18:45.456Z,98.04
2017-01-08T03:19:45.411Z,98.19
2017-01-08T03:20:45.368Z,98.1
2017-01-08T03:21:45.323Z,97.62
2017-01-08T03:22:45.278Z,98
2017-01-08T03:23:45.235Z,98.04
2017-01-08T03:24:45.193Z,98.14
2017-01-08T03:25:45.148Z,98
2017-01-08T03:26:45.104Z,97.85
2017-01-08T03:27:45.060Z,97.85
2017-01-08T03:28:45.020Z,98.19
2017-01-08T03:29:44.972Z,98.1
2017-01-08T03:30:44.927Z,98.04
2017-01-08T03:31:44.885Z,98
2017-01-08T03:32:44.843Z,98.47
2017-01-08T03:33:44.798Z,98.33
2017-01-08T03:34:44.754Z,98.47
2017-01-08T03:35:44.710Z,98.38
2017-01-08T03:36:44.664Z,98.42
2017-01-08T03:37:44.621Z,98.42
2017-01-08T03:38:44.577Z,98.23
2017-01-08T03:39:44.534Z,98.28
2017-01-08T03:40:44.489Z,98.19
2017-01-08T03:41:44.451Z,97.91
2017-01-08T03:42:44.402Z,97.72
2017-01-08T03:43:44.359Z,97.67
2017-01-08T03:44:44.315Z,98.14
2017-01-08T03:45:44.272Z,97.91
2017-01-08T03:46:44.227Z,97.85
2017-01-08T03:47:44.185Z,97.67
2017-01-08T03:48:44.141Z,97.48
2017-01-08T03:49:44.101Z,97.85
2017-01-08T03:50:44.053Z,97.91
2017-01-08T03:51:44.007Z,97.95
2017-01-08T03:52:43.965Z,98.14
2017-01-08T03:53:43.921Z,97.57
2017-01-08T03:54:43.878Z,97.67
2017-01-08T03:55:43.832Z,97.38
2017-01-08T03:56:43.791Z,97.57
2017-01-08T03:57:43.745Z,97.57
2017-01-08T03:58:43.704Z,97.53
2017-01-08T03:59:43.658Z,97.76
2017-01-08T04:00:43.614Z,97.67
2017-01-08T04:01:43.571Z,97.38
2017-01-08T04:02:43.527Z,97.57
2017-01-08T04:03:43.482Z,97.57
2017-01-08T04:04:43.439Z,97.24
2017-01-08T04:05:43.396Z,97.48
2017-01-08T04:06:43.351Z,97.19
2017-01-08T04:07:43.307Z,97.15
2017-01-08T04:08:43.263Z,97.53
2017-01-08T04:09:43.221Z,97.15
2017-01-08T04:10:43.178Z,97.24
2017-01-08T04:11:43.133Z,97.24
2017-01-08T04:12:43.090Z,97.62
2017-01-08T04:13:43.045Z,97.53
2017-01-08T04:14:43.002Z,97.15
2017-01-08T04:15:42.959Z,97.53
2017-01-08T04:16:42.915Z,97.62
2017-01-08T04:17:42.870Z,97.62
2017-01-08T04:18:42.827Z,97.43
2017-01-08T04:19:42.783Z,97.62
2017-01-08T04:20:42.741Z,97.53
2017-01-08T04:21:42.697Z,97.53
2017-01-08T04:22:42.665Z,97.62
2017-01-08T04:23:42.609Z,97.91
2017-01-08T04:24:42.567Z,98
2017-01-08T04:25:42.522Z,97.34
2017-01-08T04:26:42.478Z,97.15
2017-01-08T04:27:42.435Z,97.05
2017-01-08T04:28:42.390Z,97.24
2017-01-08T04:29:42.348Z,97
2017-01-08T04:30:42.303Z,97.24
2017-01-08T04:31:42.259Z,97.43
2017-01-08T04:32:42.216Z,97.24
2017-01-08T04:33:42.172Z,97.05
2017-01-08T04:34:42.129Z,97.34
2017-01-08T04:35:42.084Z,97.43
2017-01-08T04:36:42.041Z,97.15
2017-01-08T04:37:41.997Z,97.24
2017-01-08T04:38:41.956Z,97.24
2017-01-08T04:39:41.910Z,97.43
2017-01-08T04:40:41.866Z,97.43
2017-01-08T04:41:41.824Z,97.24
2017-01-08T04:42:41.780Z,97.34
2017-01-08T04:43:41.735Z,97.24
2017-01-08T04:44:41.693Z,97.24
2017-01-08T04:45:41.649Z,97.24
2017-01-08T04:46:41.604Z,97.24
2017-01-08T04:47:41.561Z,96.77
2017-01-08T04:48:41.517Z,96.86
2017-01-08T04:49:41.473Z,97.34
2017-01-08T04:50:41.430Z,97.24
2017-01-08T04:51:41.386Z,97.05
2017-01-08T04:52:41.342Z,97.05
2017-01-08T04:53:41.299Z,97.05
2017-01-08T04:54:41.254Z,96.77
2017-01-08T04:55:41.212Z,96.77
2017-01-08T04:56:41.173Z,96.77
2017-01-08T04:57:41.125Z,96.68
2017-01-08T04:58:41.081Z,97.05
2017-01-08T04:59:41.036Z,96.86
2017-01-08T05:00:40.993Z,97.34
2017-01-08T05:01:40.950Z,96.96
2017-01-08T05:02:40.909Z,97.05
2017-01-08T05:03:40.863Z,97.15
2017-01-08T05:04:40.821Z,97.34
2017-01-08T05:05:40.774Z,97.24
2017-01-08T05:06:40.733Z,97.34
2017-01-08T05:07:40.689Z,97.15
2017-01-08T05:08:40.645Z,96.68
2017-01-08T05:09:40.601Z,97.05
2017-01-08T05:10:40.559Z,97.05
2017-01-08T05:11:40.516Z,96.86
2017-01-08T05:12:40.470Z,96.86
2017-01-08T05:13:40.427Z,97.05
2017-01-08T05:14:40.383Z,96.86
2017-01-08T05:15:40.340Z,96.86
2017-01-08T05:16:40.297Z,97.24
2017-01-08T05:17:40.252Z,97.15
2017-01-08T05:18:40.210Z,97.24
2017-01-08T05:19:40.167Z,97.24
2017-01-08T05:20:40.122Z,97.34
2017-01-08T05:21:40.079Z,97.15
2017-01-08T05:22:40.035Z,97.15
2017-01-08T05:23:39.991Z,97.34
2017-01-08T05:24:39.948Z,97.43
2017-01-08T05:25:39.906Z,97.15
2017-01-08T05:26:39.860Z,97.15
2017-01-08T05:27:39.817Z,97.15
2017-01-08T05:28:39.773Z,97.15
2017-01-08T05:29:39.731Z,97.15
2017-01-08T05:30:39.686Z,97.34
2017-01-08T05:31:39.644Z,96.96
2017-01-08T05:32:39.600Z,97.15
2017-01-08T05:33:39.556Z,97.05
2017-01-08T05:34:39.513Z,97.43
2017-01-08T05:35:39.468Z,97.05
2017-01-08T05:36:39.825Z,97.15
2017-01-08T05:37:39.382Z,97.15
2017-01-08T05:38:39.337Z,97.15
2017-01-08T05:39:39.296Z,97.15
2017-01-08T05:40:39.250Z,97.24
2017-01-08T05:41:39.204Z,97.05
2017-01-08T05:42:39.161Z,96.96
2017-01-08T05:43:39.118Z,97.15
2017-01-08T05:44:39.075Z,96.86
2017-01-08T05:45:39.031Z,96.96
2017-01-08T05:46:38.988Z,97.05
2017-01-08T05:47:38.945Z,96.96
2017-01-08T05:48:38.901Z,96.96
2017-01-08T05:49:38.857Z,96.86
2017-01-08T05:50:38.813Z,97.05
2017-01-08T05:51:38.769Z,96.86
2017-01-08T05:52:38.726Z,96.86
2017-01-08T05:53:38.682Z,97.05
2017-01-08T05:54:38.640Z,96.68
2017-01-08T05:55:38.596Z,97.05
2017-01-08T05:56:38.553Z,97.24
2017-01-08T05:57:38.508Z,97.05
2017-01-08T05:58:38.465Z,96.68
2017-01-08T05:59:38.420Z,97.05
2017-01-08T06:00:38.378Z,96.77
2017-01-08T06:01:38.337Z,96.77
2017-01-08T06:02:38.291Z,97.24
2017-01-08T06:03:38.246Z,97.62
2017-01-08T06:04:38.204Z,97.62
2017-01-08T06:05:38.160Z,97.62
2017-01-08T06:06:38.116Z,97.24
2017-01-08T06:07:38.072Z,97.24
2017-01-08T06:08:38.031Z,97.05
2017-01-08T06:09:37.986Z,97.15
2017-01-08T06:10:37.942Z,97.15
2017-01-08T06:11:37.898Z,97.05
2017-01-08T06:12:37.856Z,97.05
2017-01-08T06:13:37.812Z,97.05
2017-01-08T06:14:37.768Z,96.86
2017-01-08T06:15:37.725Z,96.96
2017-01-08T06:16:37.682Z,97.05
2017-01-08T06:17:37.638Z,97.05
2017-01-08T06:18:37.594Z,96.86
2017-01-08T06:19:37.551Z,96.86
2017-01-08T06:20:37.509Z,97.15
2017-01-08T06:21:37.463Z,96.86
2017-01-08T06:22:37.422Z,97.05
2017-01-08T06:23:37.379Z,97.05
2017-01-08T06:24:37.333Z,97.05
2017-01-08T06:25:37.291Z,97.15
2017-01-08T06:26:37.247Z,96.96
2017-01-08T06:27:37.204Z,96.86
2017-01-08T06:28:37.161Z,97.05
2017-01-08T06:29:37.116Z,96.68
2017-01-08T06:30:37.073Z,97.05
2017-01-08T06:31:37.030Z,96.96
2017-01-08T06:32:36.986Z,96.86
2017-01-08T06:33:36.942Z,96.77
2017-01-08T06:34:36.900Z,97.05
2017-01-08T06:35:36.859Z,96.86
2017-01-08T06:36:36.812Z,96.86
2017-01-08T06:37:36.770Z,97.15
2017-01-08T06:38:36.726Z,96.86
2017-01-08T06:39:36.682Z,96.86
2017-01-08T06:40:36.638Z,97.05
2017-01-08T06:41:36.595Z,97.05
2017-01-08T06:42:36.553Z,97.24
2017-01-08T06:43:36.509Z,97.62
2017-01-08T06:44:36.464Z,97.24
2017-01-08T06:45:36.421Z,97.24
2017-01-08T06:46:36.379Z,96.96
2017-01-08T06:47:36.335Z,96.96
2017-01-08T06:48:36.292Z,97.24
2017-01-08T06:49:36.249Z,97.34
2017-01-08T06:50:36.206Z,97.05
2017-01-08T06:51:36.163Z,97.05
2017-01-08T06:52:36.119Z,97.53
2017-01-08T06:53:36.077Z,97.72
2017-01-08T06:54:36.032Z,97.34
2017-01-08T06:55:35.988Z,97.91
2017-01-08T06:56:35.946Z,97.62
2017-01-08T06:57:35.902Z,97.05
2017-01-08T06:58:35.858Z,97.05
2017-01-08T06:59:35.815Z,97.05
2017-01-08T07:00:35.772Z,97.05
2017-01-08T07:01:35.729Z,97.34
2017-01-08T07:02:35.685Z,97.15
2017-01-08T07:03:35.644Z,97.34
2017-01-08T07:04:35.600Z,97.24
2017-01-08T07:05:35.563Z,97.81
2017-01-08T07:06:35.510Z,97.91
2017-01-08T07:07:35.469Z,97.91
2017-01-08T07:08:35.426Z,97.24
2017-01-08T07:09:35.382Z,97.91
2017-01-08T07:10:35.338Z,97.34
2017-01-08T07:11:35.297Z,97.15
2017-01-08T07:12:35.250Z,97.72
2017-01-08T07:13:35.207Z,97.34
2017-01-08T07:14:35.167Z,97.53
2017-01-08T07:15:35.120Z,97.62
2017-01-08T07:16:35.077Z,97.62
2017-01-08T07:17:35.034Z,97.62
2017-01-08T07:18:34.989Z,97.34
2017-01-08T07:19:34.947Z,97.05
2017-01-08T07:20:34.903Z,97.53
2017-01-08T07:21:34.860Z,97.34
2017-01-08T07:22:34.816Z,97.05
2017-01-08T07:23:34.771Z,97.24
2017-01-08T07:24:34.728Z,97.43
2017-01-08T07:25:34.685Z,97.24
2017-01-08T07:26:34.643Z,97.24
2017-01-08T07:27:34.600Z,97.53
2017-01-08T07:28:34.555Z,97.34
2017-01-08T07:29:34.517Z,96.77
2017-01-08T07:30:34.468Z,97.62
2017-01-08T07:31:34.424Z,97.15
2017-01-08T07:32:34.382Z,97.24
2017-01-08T07:33:34.338Z,97.24
2017-01-08T07:34:34.294Z,97.24
2017-01-08T07:35:34.254Z,97.15
2017-01-08T07:36:34.210Z,97.53
2017-01-08T07:37:34.164Z,97.91
2017-01-08T07:38:34.120Z,97.72
2017-01-08T07:39:34.076Z,97.15
2017-01-08T07:40:34.033Z,97.24
2017-01-08T07:41:33.991Z,97.24
2017-01-08T07:42:33.952Z,97.34
2017-01-08T07:43:33.905Z,97.24
2017-01-08T07:44:34.016Z,98
2017-01-08T07:45:33.974Z,97.53
2017-01-08T07:46:34.316Z,97.15
2017-01-08T07:47:34.269Z,97.29
2017-01-08T07:48:34.229Z,97.29
2017-01-08T07:49:33.799Z,97.29
2017-01-08T07:50:34.139Z,97.48
2017-01-08T07:51:34.106Z,97.86
2017-01-08T07:52:34.053Z,97.39
2017-01-08T07:53:34.012Z,97.29
2017-01-08T07:54:33.968Z,97.2
2017-01-08T07:55:33.544Z,97.29
2017-01-08T07:56:33.881Z,97.2
2017-01-08T07:57:33.846Z,96.73
2017-01-08T07:58:33.797Z,96.82
2017-01-08T07:59:33.750Z,97.01
2017-01-08T08:00:33.321Z,96.91
2017-01-08T08:01:33.665Z,97.01
2017-01-08T08:02:33.620Z,97.1
2017-01-08T08:03:33.196Z,97.1
2017-01-08T08:04:33.535Z,97.29
2017-01-08T08:05:33.491Z,97.39
2017-01-08T08:06:33.450Z,97.1
2017-01-08T08:07:33.407Z,97.2
2017-01-08T08:08:33.363Z,97.29
2017-01-08T08:09:33.320Z,97.48
2017-01-08T08:10:33.279Z,97.2
2017-01-08T08:11:33.229Z,96.63
2017-01-08T08:12:33.188Z,96.82
2017-01-08T08:13:33.145Z,96.73
2017-01-08T08:14:32.716Z,96.91
2017-01-08T08:15:33.058Z,96.91
2017-01-08T08:16:32.639Z,96.91
2017-01-08T08:17:32.970Z,96.73
2017-01-08T08:18:32.926Z,96.63
2017-01-08T08:19:32.885Z,96.44
2017-01-08T08:20:32.843Z,96.73
2017-01-08T08:21:32.798Z,96.16
2017-01-08T08:22:32.756Z,96.44
2017-01-08T08:23:32.717Z,96.06
2017-01-08T08:24:32.288Z,95.78
2017-01-08T08:25:32.628Z,96.16
2017-01-08T08:26:32.584Z,95.68
2017-01-08T08:27:32.542Z,96.16
2017-01-08T08:28:32.498Z,95.97
2017-01-08T08:29:32.068Z,95.78
2017-01-08T08:30:32.414Z,95.59
2017-01-08T08:31:32.366Z,95.4
2017-01-08T08:32:32.327Z,95.31
2017-01-08T08:33:32.283Z,94.93
2017-01-08T08:34:32.240Z,95.31
2017-01-08T08:35:32.196Z,94.84
2017-01-08T08:36:31.767Z,95.4
2017-01-08T08:37:32.111Z,95.12
2017-01-08T08:38:32.067Z,95.31
2017-01-08T08:39:32.023Z,95.4
2017-01-08T08:40:31.979Z,94.65
2017-01-08T08:41:31.939Z,94.74
2017-01-08T08:42:31.896Z,95.12
2017-01-08T08:43:31.468Z,95.26
2017-01-08T08:44:31.811Z,95.26
2017-01-08T08:45:31.767Z,95.17
2017-01-08T08:46:31.733Z,95.26
2017-01-08T08:47:31.294Z,94.6
2017-01-08T08:48:31.657Z,94.89
2017-01-08T08:49:31.609Z,94.79
2017-01-08T08:50:31.554Z,94.51
2017-01-08T08:51:31.510Z,94.51
2017-01-08T08:52:31.467Z,94.79
2017-01-08T08:53:31.422Z,94.79
2017-01-08T08:54:31.386Z,94.51
2017-01-08T08:55:31.335Z,94.41
2017-01-08T08:56:30.910Z,94.79
2017-01-08T08:57:30.873Z,94.22
2017-01-08T08:58:31.210Z,94.03
2017-01-08T08:59:31.169Z,93.94
2017-01-08T09:00:31.121Z,94.03
2017-01-08T09:01:31.081Z,94.32
2017-01-08T09:02:31.041Z,94.13
2017-01-08T09:03:30.612Z,94.13
2017-01-08T09:04:30.953Z,94.13
2017-01-08T09:05:30.910Z,93.94
2017-01-08T09:06:30.863Z,94.32
2017-01-08T09:07:30.823Z,94.03
2017-01-08T09:08:30.787Z,93.56
2017-01-08T09:09:30.739Z,93.66
2017-01-08T09:10:30.312Z,93.28
2017-01-08T09:11:30.652Z,93.66
2017-01-08T09:12:30.644Z,93.84
2017-01-08T09:13:30.571Z,93.75
2017-01-08T09:14:30.523Z,93.84
2017-01-08T09:15:30.483Z,93.56
2017-01-08T09:16:30.057Z,93.75
2017-01-08T09:17:30.397Z,93.84
2017-01-08T09:18:29.972Z,93.18
2017-01-08T09:19:30.316Z,93.37
2017-01-08T09:20:30.266Z,92.99
2017-01-08T09:21:29.842Z,92.71
2017-01-08T09:22:30.187Z,92.14
2017-01-08T09:23:29.762Z,92.24
2017-01-08T09:24:30.104Z,92.29
2017-01-08T09:25:30.055Z,92.29
2017-01-08T09:26:30.013Z,91.91
2017-01-08T09:27:29.972Z,92
2017-01-08T09:28:29.935Z,92.38
2017-01-08T09:29:29.500Z,91.91
2017-01-08T09:30:29.844Z,91.24
2017-01-08T09:31:29.804Z,90.96
2017-01-08T09:32:29.763Z,91.15
2017-01-08T09:33:29.723Z,91.05
2017-01-08T09:34:29.675Z,90.96
2017-01-08T09:35:29.249Z,91.05
2017-01-08T09:36:29.212Z,91.15
2017-01-08T09:37:29.550Z,90.96
2017-01-08T09:38:29.509Z,91.24
2017-01-08T09:39:29.463Z,91.43
2017-01-08T09:40:29.424Z,91.05
2017-01-08T09:41:29.380Z,90.77
2017-01-08T09:42:29.339Z,91.15
2017-01-08T09:43:29.295Z,90.58
2017-01-08T09:44:29.256Z,91.43
2017-01-08T09:45:29.215Z,91.24
2017-01-08T09:46:29.167Z,91.24
2017-01-08T09:47:29.162Z,91.24
2017-01-08T09:48:29.087Z,90.86
2017-01-08T09:49:29.041Z,91.05
2017-01-08T09:50:28.656Z,91.05
2017-01-08T09:51:29.198Z,91.15
2017-01-08T09:52:28.915Z,91.05
2017-01-08T09:53:28.495Z,91.15
2017-01-08T09:54:28.835Z,90.49
2017-01-08T09:55:28.799Z,90.58
2017-01-08T09:56:28.752Z,90.68
2017-01-08T09:57:28.321Z,90.3
2017-01-08T09:58:28.664Z,90.77
2017-01-08T09:59:28.626Z,90.68
2017-01-08T10:00:28.582Z,90.77
2017-01-08T10:01:28.153Z,90.77
2017-01-08T10:02:28.117Z,90.58
2017-01-08T10:03:28.456Z,90.68
2017-01-08T10:04:28.412Z,90.3
2017-01-08T10:05:28.369Z,90.49
2017-01-08T10:06:28.337Z,90.77
2017-01-08T10:07:28.287Z,90.39
2017-01-08T10:08:28.243Z,90.3
2017-01-08T10:09:27.815Z,90.3
2017-01-08T10:10:28.160Z,90.01
2017-01-08T10:11:28.119Z,89.83
2017-01-08T10:12:28.079Z,89.83
2017-01-08T10:13:28.042Z,90.11
2017-01-08T10:14:27.991Z,89.64
2017-01-08T10:15:27.576Z,90.11
2017-01-08T10:16:27.907Z,89.26
2017-01-08T10:17:27.875Z,89.64
2017-01-08T10:18:27.825Z,89.45
2017-01-08T10:19:27.780Z,90.11
2017-01-08T10:20:27.358Z,90.11
2017-01-08T10:21:27.698Z,89.45
2017-01-08T10:22:27.659Z,89.83
2017-01-08T10:23:27.612Z,89.07
2017-01-08T10:24:27.568Z,88.88
2017-01-08T10:25:27.531Z,89.12
2017-01-08T10:26:27.493Z,89.21
2017-01-08T10:27:27.447Z,89.02
2017-01-08T10:28:27.413Z,88.45
2017-01-08T10:29:26.976Z,88.55
2017-01-08T10:30:27.329Z,88.26
2017-01-08T10:31:27.282Z,87.88
2017-01-08T10:32:27.238Z,87.79
2017-01-08T10:33:27.197Z,87.88
2017-01-08T10:34:27.153Z,87.88
2017-01-08T10:35:27.115Z,87.13
2017-01-08T10:36:27.079Z,86.85
2017-01-08T10:37:27.029Z,86.75
2017-01-08T10:38:26.988Z,86.66
2017-01-08T10:39:26.564Z,86.66
2017-01-08T10:40:26.905Z,86.37
2017-01-08T10:41:26.862Z,85.8
2017-01-08T10:42:26.825Z,85.52
2017-01-08T10:43:26.790Z,84.77
2017-01-08T10:44:26.740Z,83.82
2017-01-08T10:45:26.698Z,84.1
2017-01-08T10:46:26.270Z,84.58
2017-01-08T10:47:26.615Z,84.1
2017-01-08T10:48:26.574Z,84.2
2017-01-08T10:49:26.148Z,84.48
2017-01-08T10:50:26.108Z,84.67
2017-01-08T10:51:26.451Z,84.42
2017-01-08T10:52:26.412Z,84.42
2017-01-08T10:53:26.379Z,83.67
2017-01-08T10:54:26.331Z,83.58
2017-01-08T10:55:26.313Z,83.2
2017-01-08T10:56:26.243Z,82.82
2017-01-08T10:57:26.204Z,82.91
2017-01-08T10:58:26.163Z,83.1
2017-01-08T10:59:26.124Z,82.91
2017-01-08T11:00:26.083Z,81.96
2017-01-08T11:01:26.041Z,82.82
2017-01-08T11:02:25.999Z,82.72
2017-01-08T11:03:25.958Z,82.91
2017-01-08T11:04:25.534Z,82.82
2017-01-08T11:05:25.878Z,83.1
2017-01-08T11:06:25.837Z,82.91
2017-01-08T11:07:25.411Z,82.82
2017-01-08T11:08:25.755Z,82.53
2017-01-08T11:09:25.330Z,83.39
2017-01-08T11:10:25.673Z,83.1
2017-01-08T11:11:25.634Z,83.67
2017-01-08T11:12:25.767Z,83.39
2017-01-08T11:13:25.555Z,82.82
2017-01-08T11:14:25.617Z,82.34
2017-01-08T11:15:25.471Z,82.72
2017-01-08T11:16:25.431Z,83.01
2017-01-08T11:17:25.392Z,83.01
2017-01-08T11:18:25.354Z,81.68
2017-01-08T11:19:24.925Z,81.77
2017-01-08T11:20:25.267Z,81.77
2017-01-08T11:21:25.230Z,81.77
2017-01-08T11:22:24.802Z,82.44
2017-01-08T11:23:25.150Z,82.06
2017-01-08T11:24:25.106Z,82.25
2017-01-08T11:25:25.062Z,82.34
2017-01-08T11:26:25.026Z,81.77
2017-01-08T11:27:24.995Z,81.4
2017-01-08T11:28:24.941Z,81.3
2017-01-08T11:29:24.900Z,81.4
2017-01-08T11:30:24.860Z,80.93
2017-01-08T11:31:24.820Z,80.93
2017-01-08T11:32:24.394Z,80.74
2017-01-08T11:33:24.356Z,81.4
2017-01-08T11:34:24.698Z,81.02
2017-01-08T11:35:24.660Z,80.64
2017-01-08T11:36:24.233Z,80.55
2017-01-08T11:37:24.582Z,80.74
2017-01-08T11:38:24.539Z,80.17
2017-01-08T11:39:24.497Z,80.07
2017-01-08T11:40:24.455Z,79.6
2017-01-08T11:41:24.418Z,79.98
2017-01-08T11:42:24.379Z,80.17
2017-01-08T11:43:24.334Z,80.36
2017-01-08T11:44:24.293Z,79.79
2017-01-08T11:45:24.253Z,79.88
2017-01-08T11:46:24.212Z,79.88
2017-01-08T11:47:23.786Z,79.79
2017-01-08T11:48:24.147Z,79.88
2017-01-08T11:49:24.092Z,79.79
2017-01-08T11:50:24.055Z,80.17
2017-01-08T11:51:24.009Z,80.74
2017-01-08T11:52:23.970Z,80.55
2017-01-08T11:53:23.931Z,80.17
2017-01-08T11:54:23.887Z,80.26
2017-01-08T11:55:23.848Z,80.36
2017-01-08T11:56:23.423Z,80.55
2017-01-08T11:57:23.768Z,80.55
2017-01-08T11:58:23.342Z,80.55
2017-01-08T11:59:23.693Z,80.83
2017-01-08T12:00:23.649Z,80.74
2017-01-08T12:01:23.609Z,80.74
2017-01-08T12:02:23.208Z,80.83
2017-01-08T12:03:23.522Z,80.93
2017-01-08T12:04:23.484Z,80.93
2017-01-08T12:05:23.060Z,80.45
2017-01-08T12:06:23.017Z,79.6
2017-01-08T12:07:23.362Z,79.88
2017-01-08T12:08:23.321Z,80.07
2017-01-08T12:09:23.283Z,80.07
2017-01-08T12:10:22.858Z,79.88
2017-01-08T12:11:23.200Z,80.83
2017-01-08T12:12:23.163Z,80.17
2017-01-08T12:13:23.116Z,81.21
2017-01-08T12:14:23.084Z,80.74
2017-01-08T12:15:23.037Z,81.02
2017-01-08T12:16:22.614Z,81.21
2017-01-08T12:17:22.568Z,81.59
2017-01-08T12:18:22.944Z,81.49
2017-01-08T12:19:22.876Z,81.49
2017-01-08T12:20:22.835Z,81.87
2017-01-08T12:21:22.794Z,81.68
2017-01-08T12:22:22.370Z,81.77
2017-01-08T12:23:22.708Z,81.83
2017-01-08T12:24:22.669Z,81.74
2017-01-08T12:25:22.629Z,81.55
2017-01-08T12:26:22.592Z,82.12
2017-01-08T12:27:22.549Z,82.87
2017-01-08T12:28:22.516Z,82.87
2017-01-08T12:29:22.084Z,82.87
2017-01-08T12:30:22.426Z,83.25
2017-01-08T12:31:22.001Z,83.25
2017-01-08T12:32:22.347Z,83.44
2017-01-08T12:33:22.305Z,83.44
2017-01-08T12:34:21.923Z,83.53
2017-01-08T12:35:22.458Z,83.53
2017-01-08T12:36:22.214Z,83.82
2017-01-08T12:37:22.140Z,83.44
2017-01-08T12:38:22.131Z,83.53
2017-01-08T12:39:21.680Z,83.53
2017-01-08T12:40:22.019Z,83.2
2017-01-08T12:41:21.618Z,82.82
2017-01-08T12:42:21.934Z,82.44
2017-01-08T12:43:21.893Z,82.34
2017-01-08T12:44:21.854Z,82.06
2017-01-08T12:45:21.812Z,82.44
2017-01-08T12:46:21.780Z,82.44
2017-01-08T12:47:21.731Z,82.06
2017-01-08T12:48:21.689Z,81.68
2017-01-08T12:49:21.265Z,81.87
2017-01-08T12:50:21.223Z,81.87
2017-01-08T12:51:21.572Z,81.77
2017-01-08T12:52:21.528Z,81.4
2017-01-08T12:53:21.489Z,81.21
2017-01-08T12:54:21.446Z,81.21
2017-01-08T12:55:21.405Z,81.49